Flight Track Log - Related Links

Times and Time Zones

All times are in EDT time to prevent confusion due to time zone crossing. See the DAL6201 flight status page for this flight to view local times or setup timezone preferences in your user account.

Time Position Orientation Groundspeed Altitude Reporting Facility
EDT Latitude Longitude Course Direction KTS MPH feet Rate Location/Type
09:16PM 40.4894 -80.1408 80° East 180 207 4,800  Level Cleveland Center
09:17PM 40.4975 -80.0397 84° East 215 247 5,900 2,250 Climbing Cleveland Center
09:18PM 40.5136 -79.9522 76° East 257 296 9,300 3,050 Climbing Cleveland Center
09:19PM 40.5297 -79.8375 79° East 271 312 12,000 2,400 Climbing Cleveland Center
09:20PM 40.5539 -79.7169 75° East 309 356 14,100 2,350 Climbing Cleveland Center
09:21PM 40.5478 -79.4169 80° East  Level Estimated
09:21PM 40.5819 -79.5853 74° East 335 386 16,700  Level Cleveland Center
09:22PM 40.6119 -79.4536 73° East 359 413 18,800 2,050 Climbing Cleveland Center
09:23PM 40.6417 -79.3161 74° East 376 433 20,800 2,000 Climbing Cleveland Center
09:24PM 40.6714 -79.1733 75° East 392 451 22,800 1,900 Climbing Cleveland Center
09:25PM 40.7028 -79.0303 74° East 398 458 24,600 1,650 Climbing Cleveland Center
09:26PM 40.7281 -78.9036 75° East 398 458 26,100 1,200 Climbing Cleveland Center
09:27PM 40.7592 -78.7519 75° East 403 464 27,000 277 Climbing Cleveland Center
09:29PM 40.8350 -78.3883 74° East 448 516 27,000  Level New York Center
09:30PM 40.8683 -78.2272 75° East 448 516 27,000  Level New York Center
09:31PM 40.9011 -78.0689 75° East 448 516 27,000  Level New York Center
09:32PM 40.9236 -77.9036 80° East 448 516 27,000  Level New York Center
09:33PM 40.9375 -77.7403 84° East 448 516 27,000  Level New York Center
09:34PM 40.9511 -77.5767 84° East 448 516 27,000  Level New York Center
09:35PM 40.9650 -77.4078 84° East 448 516 27,000 -101 Level New York Center
09:36PM 40.9753 -77.2575 85° East 436 502 26,800 -850 Descending New York Center
09:37PM 40.9889 -77.1214 82° East 407 468 25,300 -1,500 Descending New York Center
09:38PM 40.9981 -76.9900 85° East 379 436 23,800 -1,475 Descending New York Center
09:39PM 41.0067 -76.8617 85° East 360 414 22,300 -1,513 Descending New York Center
09:40PM 41.0156 -76.7331 85° East 350 403 20,800 -1,500 Descending New York Center
09:41PM 41.0072 -76.6058 95° East 345 397 19,300 -1,400 Descending New York Center
09:42PM 40.9797 -76.4825 106° East 350 403 18,000 -650 Descending New York Center
09:43PM 40.9519 -76.3675 108° East 344 396 18,000 50 Level New York Center
09:44PM 40.9258 -76.2583 108° East 321 369 18,100 -504 Climbing New York Center
09:45PM 40.8994 -76.1547 109° East 321 369 17,000 -1,279 Descending New York Center
09:46PM 40.8697 -76.0289 107° East 321 369 15,500 -1,412 Descending New York Center
09:47PM 40.8433 -75.9169 107° East 321 369 14,200 -1,261 Descending New York Center
09:48PM 40.8203 -75.8247 108° East 308 354 13,000 -600 Descending New York Center
09:49PM 40.7933 -75.7186 109° East 302 348 13,000  Level New York Center
09:50PM 40.7647 -75.6069 109° East 297 342 13,000  Level New York Center
09:51PM 40.7431 -75.5233 109° East 297 342 13,000  Level New York Center
09:52PM 40.7167 -75.4036 106° East 297 342 13,000 -50 Level New York Center
09:53PM 40.6936 -75.2953 106° East 302 348 12,900 -689 Descending New York Center
09:54PM 40.6731 -75.1817 103° East 302 348 11,600 -1,350 Descending New York Center
09:55PM 40.6281 -75.0969 125° Southeast 293 337 10,200 -814 Descending New York Center
09:56PM 40.5806 -75.0283 132° Southeast 280 322 10,000 -102 Descending New York Center
09:57PM 40.5467 -74.9333 115° Southeast 280 322 10,000  Level New York Center
09:58PM 40.5167 -74.8306 111° Southeast 292 336 10,000  Level New York Center
09:59PM 40.4828 -74.7275 113° Southeast 292 336 10,000 -454 Level New York Center
10:00PM 40.4567 -74.6386 111° Southeast 292 336 9,100 -605 Descending New York Center
10:01PM 40.4261 -74.5525 115° Southeast 275 316 8,800 -484 Descending New York Center
10:02PM 40.4000 -74.4500 108° East 279 321 8,100 -326 Descending New York TRACON
10:03PM 40.4833 -74.4167 17° North 270 311 8,100 -48 Level New York TRACON
10:04PM 40.4833 -74.3500 90° East 220 253 8,000 -500 Descending New York TRACON
10:05PM 40.4500 -74.3000 131° Southeast 204 235 7,100 -470 Descending New York TRACON
10:06PM 40.4667 -74.2500 66° East 201 231 7,100 -400 Level New York TRACON
10:07PM 40.4833 -74.1667 75° East 197 227 6,300 -908 Descending New York TRACON
10:08PM 40.4833 -74.1167 90° East 172 198 5,300 -1,053 Descending New York TRACON
10:09PM 40.5333 -74.0833 27° Northeast 185 213 4,300 -1,000 Descending New York TRACON
10:10PM 40.5833 -74.0500 27° Northeast 181 208 3,300 -600 Descending New York TRACON
10:11PM 40.6167 -74.0167 37° Northeast 165 190 3,100 -150 Descending New York TRACON
10:12PM 40.6500 -73.9833 37° Northeast 149 171 3,000 -496 Descending New York TRACON
10:13PM 40.6833 -73.9500 37° Northeast 147 169 2,100 -843 Descending New York TRACON
10:14PM 40.7167 -73.9333 21° North 132 152 1,300 -750 Descending New York TRACON
10:15PM 40.7500 -73.9000 37° Northeast 134 154 600 -700 Descending New York TRACON
10:17PM 40.7667 -73.8667 30° Northeast  Level FlightAware Approximate
10:24PM 40.7772 -73.8726 30° Northeast  Level Estimated

Login

Don't have an account? Register now (free) for customized features, flight alerts, and more!